Time;durP1;ratioP1;P1;durP2;ratioP2;P2;SDS_P1;SDS_P2;PMS_P1;PMS_P2;Temp;Humidity;BMP_temperature;BMP_pressure;BME280_temperature;BME280_humidity;BME280_pressure;Samples;Min_cycle;Max_cycle;Signal;HPM_P1;HPM_P2
2022/12/30 00:02:27;;;;;;;3.70;1.40;;;;;;;;;;5013254;28;20060;-75
2022/12/30 00:04:54;;;;;;;3.30;1.33;;;;;;;;;;5013051;28;20053;-75
2022/12/30 00:07:21;;;;;;;3.28;1.30;;;;;;;;;;5013187;28;20136;-74
2022/12/30 00:09:48;;;;;;;3.70;1.55;;;;;;;;;;5013143;28;20561;-74
2022/12/30 00:34:16;;;;;;;4.78;1.73;;;13.60;70.10;;;;;;5032437;28;20042;-74
2022/12/30 00:36:43;;;;;;;2.40;1.20;;;;;;;;;;5032104;28;20053;-74
2022/12/30 00:39:10;;;;;;;2.63;1.52;;;;;;;;;;5032472;28;20053;-74
2022/12/30 00:44:34;;;;;;;3.00;1.40;;;;;;;;;;4974872;28;20050;-74
2022/12/30 00:47:01;;;;;;;2.90;1.40;;;;;;;;;;5017927;28;20053;-74
2022/12/30 00:57:43;;;;;;;3.60;1.40;;;;;;;;;;5012437;28;20046;-75
2022/12/30 01:00:11;;;;;;;3.45;1.50;;;;;;;;;;5013294;28;20045;-75
2022/12/30 01:02:38;;;;;;;4.70;1.60;;;;;;;;;;5012178;28;20141;-75
2022/12/30 01:05:07;;;;;;;4.65;1.95;;;;;;;;;;5012151;28;20049;-75
2022/12/30 01:07:34;;;;;;;2.50;1.30;;;;;;;;;;5012051;28;20050;-74
2022/12/30 01:10:02;;;;;;;2.45;1.30;;;;;;;;;;5020012;28;20058;-74
2022/12/30 01:12:29;;;;;;;3.63;1.60;;;13.40;70.50;;;;;;5011387;28;20132;-74
2022/12/30 01:14:58;;;;;;;3.38;1.58;;;;;;;;;;5012290;28;20053;-74
2022/12/30 01:17:26;;;;;;;4.57;1.55;;;;;;;;;;5011802;28;20049;-74
2022/12/30 01:19:53;;;;;;;3.35;1.30;;;;;;;;;;5011912;28;20653;-74
2022/12/30 01:22:21;;;;;;;3.35;1.40;;;;;;;;;;5024929;28;20053;-74
2022/12/30 01:24:49;;;;;;;3.33;1.30;;;;;;;;;;5030898;28;20554;-74
2022/12/30 01:27:16;;;;;;;2.45;1.48;;;;;;;;;;5031436;28;20556;-74
2022/12/30 01:29:43;;;;;;;3.83;1.40;;;;;;;;;;5031368;28;20132;-74
2022/12/30 01:32:10;;;;;;;3.00;1.45;;;;;;;;;;5031432;28;20574;-74
2022/12/30 01:34:38;;;;;;;2.30;1.40;;;;;;;;;;5031415;28;20057;-74
2022/12/30 01:37:05;;;;;;;2.78;1.20;;;;;;;;;;5030892;28;20132;-74
2022/12/30 01:39:33;;;;;;;4.20;1.52;;;;;;;;;;5030863;28;20057;-74
2022/12/30 01:42:00;;;;;;;3.22;1.48;;;;;;;;;;5031346;28;20063;-74
2022/12/30 01:44:46;;;;;;;2.35;1.30;;;;;;;;;;5031190;28;20526;-74
2022/12/30 01:47:13;;;;;;;2.60;1.42;;;;;;;;;;5031169;28;20056;-74
2022/12/30 01:49:40;;;;;;;4.40;1.50;;;;;;;;;;5031214;28;20513;-74
2022/12/30 01:52:07;;;;;;;3.35;1.50;;;;;;;;;;5026654;28;20129;-74
2022/12/30 01:54:36;;;;;;;4.10;1.38;;;;;;;;;;5010957;28;20132;-74
2022/12/30 01:57:03;;;;;;;4.40;1.50;;;;;;;;;;5011412;28;20058;-74
2022/12/30 01:59:30;;;;;;;3.58;1.27;;;;;;;;;;5011344;28;20049;-74
2022/12/30 02:01:57;;;;;;;3.40;1.38;;;;;;;;;;5011096;28;20056;-74
2022/12/30 02:04:25;;;;;;;2.55;1.27;;;;;;;;;;5010606;28;20064;-74
2022/12/30 02:06:53;;;;;;;3.10;1.50;;;;;;;;;;5014584;28;20501;-74
2022/12/30 02:09:20;;;;;;;4.10;1.52;;;;;;;;;;5028859;28;20145;-74
2022/12/30 02:11:48;;;;;;;4.03;1.70;;;;;;;;;;5031049;28;20136;-74
2022/12/30 02:14:15;;;;;;;4.20;1.30;;;;;;;;;;5030684;28;20057;-74
2022/12/30 02:16:45;;;;;;;3.13;1.35;;;;;;;;;;5031814;28;20495;-74
2022/12/30 02:19:42;;;;;;;4.70;1.45;;;13.40;72.40;;;;;;5031101;28;20053;-74
2022/12/30 02:22:10;;;;;;;3.53;1.40;;;13.40;70.70;;;;;;5030658;28;20080;-74
2022/12/30 02:24:50;;;;;;;3.42;1.30;;;13.30;72.50;;;;;;5034499;28;20406;-74
2022/12/30 02:27:30;;;;;;;4.03;1.40;;;13.40;72.50;;;;;;5035850;28;20557;-74
2022/12/30 02:30:12;;;;;;;3.25;1.33;;;;;;;;;;5031598;28;20068;-74
2022/12/30 02:33:08;;;;;;;2.63;1.25;;;13.30;72.40;;;;;;5014994;28;20477;-74
2022/12/30 02:35:40;;;;;;;4.80;1.67;;;13.20;72.40;;;;;;5017074;28;20053;-74
2022/12/30 02:38:12;;;;;;;2.03;1.13;;;13.20;71.80;;;;;;5033251;28;20562;-74
2022/12/30 02:46:09;;;;;;;3.22;1.80;;;;;;;;;;5035466;28;19917;-74
2022/12/30 02:48:38;;;;;;;3.25;1.30;;;;;;;;;;5034203;28;20065;-73
2022/12/30 02:53:50;;;;;;;3.40;1.63;;;;;;;;;;5034439;28;20056;-74
2022/12/30 02:56:17;;;;;;;3.75;1.45;;;;;;;;;;5034252;28;20054;-74
2022/12/30 02:58:45;;;;;;;5.45;1.63;;;13.10;72.40;;;;;;5034272;28;20069;-74
2022/12/30 03:04:07;;;;;;;4.68;1.50;;;13.20;72.60;;;;;;5034009;28;20507;-74
2022/12/30 03:06:49;;;;;;;2.60;1.10;;;13.20;72.50;;;;;;5014087;28;20435;-74
2022/12/30 03:09:19;;;;;;;2.13;1.00;;;;;;;;;;5014044;28;20419;-74
2022/12/30 03:11:47;;;;;;;4.00;1.60;;;;;;;;;;5014383;28;20058;-74
2022/12/30 03:14:16;;;;;;;3.30;1.30;;;;;;;;;;5013888;28;20084;-73
2022/12/30 03:16:45;;;;;;;3.80;1.38;;;13.20;71.70;;;;;;5014137;28;20060;-74
2022/12/30 03:19:14;;;;;;;2.67;1.42;;;13.20;72.60;;;;;;5020664;28;20508;-74
2022/12/30 03:21:42;;;;;;;5.20;1.60;;;;;;;;;;5034066;28;20491;-74
2022/12/30 03:27:04;;;;;;;2.65;1.40;;;;;;;;;;5033510;28;20049;-74
2022/12/30 03:29:32;;;;;;;2.78;1.40;;;;;;;;;;5033472;28;20502;-74
2022/12/30 03:31:59;;;;;;;3.13;1.50;;;;;;;;;;5033782;28;20053;-74
2022/12/30 03:34:28;;;;;;;3.08;1.40;;;;;;;;;;5031947;28;20091;-74
2022/12/30 03:36:55;;;;;;;2.92;1.27;;;;;;;;;;5033123;28;20053;-73
2022/12/30 03:39:23;;;;;;;2.17;1.10;;;;;;;;;;5033408;28;20049;-73
2022/12/30 03:41:51;;;;;;;3.25;1.40;;;;;;;;;;5033463;28;20057;-74
2022/12/30 03:44:18;;;;;;;3.25;1.50;;;;;;;;;;5033263;28;20049;-74
2022/12/30 03:46:45;;;;;;;4.25;1.50;;;;;;;;;;5033085;28;20053;-74
2022/12/30 03:49:12;;;;;;;2.95;1.23;;;;;;;;;;5016872;28;20065;-74
2022/12/30 03:51:40;;;;;;;2.42;1.33;;;;;;;;;;5014679;28;20042;-73
2022/12/30 03:54:08;;;;;;;3.80;1.60;;;;;;;;;;5013257;28;20053;-74
2022/12/30 03:56:35;;;;;;;3.25;1.40;;;;;;;;;;5013579;28;20129;-74
2022/12/30 03:59:02;;;;;;;3.22;1.52;;;;;;;;;;5013341;28;20141;-74
2022/12/30 04:01:29;;;;;;;1.88;1.38;;;;;;;;;;5013278;28;20058;-74
2022/12/30 04:03:56;;;;;;;2.75;1.40;;;;;;;;;;5029951;28;20073;-74
2022/12/30 04:06:23;;;;;;;2.08;1.20;;;;;;;;;;5032989;28;20041;-74
2022/12/30 04:08:51;;;;;;;3.50;1.30;;;13.00;72.80;;;;;;5033110;28;20137;-74
2022/12/30 04:11:18;;;;;;;3.35;1.50;;;;;;;;;;5032855;28;20060;-74
2022/12/30 04:13:45;;;;;;;1.95;1.23;;;;;;;;;;5032826;28;20063;-74
2022/12/30 04:16:12;;;;;;;2.83;1.20;;;;;;;;;;5031421;28;20063;-74
2022/12/30 04:18:39;;;;;;;2.70;1.45;;;;;;;;;;5013121;28;20054;-73
2022/12/30 04:21:06;;;;;;;2.28;1.42;;;;;;;;;;5015994;28;20133;-73
2022/12/30 04:23:33;;;;;;;3.38;1.30;;;;;;;;;;5032701;28;20049;-74
2022/12/30 04:26:02;;;;;;;2.20;1.30;;;;;;;;;;5032459;28;20049;-74
2022/12/30 04:28:29;;;;;;;3.55;1.38;;;;;;;;;;5032428;28;20049;-73
2022/12/30 04:30:56;;;;;;;4.35;1.40;;;;;;;;;;5032133;28;20049;-73
2022/12/30 04:33:23;;;;;;;2.42;1.30;;;;;;;;;;5032308;28;20133;-73
2022/12/30 04:35:50;;;;;;;4.07;1.60;;;;;;;;;;5031957;28;20081;-73
2022/12/30 04:38:17;;;;;;;2.80;1.30;;;;;;;;;;5032478;28;20683;-73
2022/12/30 04:40:44;;;;;;;2.42;1.23;;;;;;;;;;5032507;28;20508;-73
2022/12/30 04:43:12;;;;;;;2.38;1.33;;;;;;;;;;5032270;28;20621;-73
2022/12/30 04:45:39;;;;;;;2.67;1.30;;;;;;;;;;5031027;28;20056;-74
2022/12/30 04:48:06;;;;;;;3.42;1.30;;;;;;;;;;5032134;28;20063;-74
2022/12/30 04:50:33;;;;;;;2.03;1.20;;;;;;;;;;5031858;28;20059;-74
2022/12/30 04:53:00;;;;;;;1.90;1.20;;;;;;;;;;5032111;28;20068;-74
2022/12/30 04:55:28;;;;;;;3.05;1.55;;;;;;;;;;5031975;28;20075;-73
2022/12/30 04:57:55;;;;;;;2.78;1.42;;;;;;;;;;5032151;28;20405;-73
2022/12/30 05:00:23;;;;;;;3.40;1.20;;;;;;;;;;5031609;28;20501;-73
2022/12/30 05:02:50;;;;;;;4.05;1.40;;;;;;;;;;5031560;28;20430;-73
2022/12/30 05:05:17;;;;;;;2.72;1.30;;;;;;;;;;5031741;28;20418;-74
2022/12/30 05:07:44;;;;;;;4.30;1.50;;;;;;;;;;5032482;28;20052;-74
2022/12/30 05:10:11;;;;;;;2.75;1.45;;;;;;;;;;5031930;28;20057;-74
2022/12/30 05:12:39;;;;;;;3.05;1.30;;;;;;;;;;5032474;28;20049;-73
2022/12/30 05:15:06;;;;;;;2.13;1.13;;;;;;;;;;5020932;28;20054;-73
2022/12/30 05:17:34;;;;;;;3.05;1.45;;;;;;;;;;5012028;28;20064;-74
2022/12/30 05:20:01;;;;;;;3.45;1.50;;;;;;;;;;5012058;28;20058;-73
2022/12/30 05:22:28;;;;;;;4.47;1.55;;;;;;;;;;5025905;28;20117;-73
2022/12/30 05:27:40;;;;;;;3.05;1.35;;;;;;;;;;5031514;28;20645;-73
2022/12/30 05:30:08;;;;;;;2.35;1.13;;;;;;;;;;5030873;28;20539;-73
2022/12/30 05:32:36;;;;;;;3.17;1.50;;;;;;;;;;5031110;28;20136;-73
2022/12/30 05:35:03;;;;;;;2.45;1.40;;;;;;;;;;5031537;28;20569;-74
2022/12/30 05:37:30;;;;;;;1.73;1.10;;;;;;;;;;5030676;28;20128;-73
2022/12/30 05:39:57;;;;;;;3.63;1.30;;;;;;;;;;5031497;28;20058;-73
2022/12/30 05:42:24;;;;;;;2.92;1.40;;;;;;;;;;5031157;28;20049;-74
2022/12/30 05:44:52;;;;;;;3.60;1.40;;;;;;;;;;5030573;28;20076;-74
2022/12/30 05:47:19;;;;;;;2.60;1.30;;;;;;;;;;5030942;28;20049;-74
2022/12/30 05:49:47;;;;;;;3.47;1.30;;;;;;;;;;5031334;28;20056;-74
2022/12/30 05:52:15;;;;;;;3.22;1.33;;;;;;;;;;5031941;28;20457;-73
2022/12/30 05:54:42;;;;;;;2.78;1.30;;;;;;;;;;5031246;28;20049;-73
2022/12/30 05:57:09;;;;;;;3.22;1.30;;;;;;;;;;5030103;28;20049;-73
2022/12/30 05:59:36;;;;;;;2.92;1.30;;;;;;;;;;5030264;28;20045;-73
2022/12/30 06:02:03;;;;;;;2.20;1.52;;;;;;;;;;5030846;28;20140;-74
2022/12/30 06:04:30;;;;;;;2.35;1.20;;;;;;;;;;5030894;28;20059;-74
2022/12/30 06:06:59;;;;;;;2.95;1.20;;;;;;;;;;5030883;28;20046;-73
2022/12/30 06:09:26;;;;;;;2.22;1.40;;;;;;;;;;5030640;28;20553;-73
2022/12/30 06:11:53;;;;;;;2.28;1.35;;;;;;;;;;5031270;28;20550;-73
2022/12/30 06:14:20;;;;;;;2.13;1.30;;;;;;;;;;5024276;28;20583;-73
2022/12/30 06:16:47;;;;;;;2.33;1.10;;;;;;;;;;5028382;28;20053;-74
2022/12/30 06:19:14;;;;;;;2.75;1.40;;;;;;;;;;5030825;28;20053;-74
2022/12/30 06:21:41;;;;;;;3.38;1.33;;;;;;;;;;5030803;28;20053;-74
2022/12/30 06:24:10;;;;;;;3.03;1.38;;;;;;;;;;5030816;28;20049;-73
2022/12/30 06:26:37;;;;;;;2.83;1.40;;;;;;;;;;5030272;28;20124;-73
2022/12/30 06:29:04;;;;;;;2.30;1.30;;;;;;;;;;5030630;28;20065;-74
2022/12/30 06:31:31;;;;;;;3.05;1.20;;;;;;;;;;5014262;28;20062;-73
2022/12/30 06:33:58;;;;;;;3.05;1.20;;;;;;;;;;5010880;28;20079;-74
2022/12/30 06:36:25;;;;;;;3.72;1.33;;;;;;;;;;5012289;28;20076;-74
2022/12/30 06:38:52;;;;;;;2.63;1.23;;;;;;;;;;5011067;28;20057;-74
2022/12/30 06:41:21;;;;;;;2.40;1.20;;;;;;;;;;5011014;28;20060;-74
2022/12/30 06:43:48;;;;;;;2.95;1.30;;;;;;;;;;5012405;28;20053;-74
2022/12/30 06:46:15;;;;;;;2.97;1.48;;;;;;;;;;5030444;28;20087;-74
2022/12/30 06:48:42;;;;;;;4.30;1.73;;;;;;;;;;5030597;28;20062;-74
2022/12/30 06:51:09;;;;;;;4.13;1.20;;;;;;;;;;5030605;28;20061;-73
2022/12/30 06:53:36;;;;;;;3.25;1.45;;;;;;;;;;5030448;28;20064;-73
2022/12/30 06:56:03;;;;;;;3.60;1.40;;;;;;;;;;5030369;28;20056;-73
2022/12/30 06:58:31;;;;;;;2.55;1.17;;;;;;;;;;5028674;28;20126;-73
2022/12/30 07:00:59;;;;;;;3.50;1.25;;;;;;;;;;5010745;28;20505;-73
2022/12/30 07:03:26;;;;;;;3.58;1.33;;;;;;;;;;5010409;28;20132;-74
2022/12/30 07:05:53;;;;;;;2.83;1.15;;;;;;;;;;5010674;28;20054;-73
2022/12/30 07:08:20;;;;;;;2.83;1.33;;;;;;;;;;5010582;28;20049;-73
2022/12/30 07:10:47;;;;;;;2.40;1.60;;;;;;;;;;5014190;28;20056;-74
2022/12/30 07:13:14;;;;;;;2.33;1.20;;;;;;;;;;5020267;28;20132;-73
2022/12/30 07:15:42;;;;;;;3.63;1.30;;;;;;;;;;5032463;28;20053;-74
2022/12/30 07:18:10;;;;;;;2.00;1.10;;;;;;;;;;5032124;28;20077;-74
2022/12/30 07:20:38;;;;;;;2.42;1.27;;;;;;;;;;5033757;28;20057;-74
2022/12/30 07:23:05;;;;;;;3.38;1.30;;;;;;;;;;5033341;28;20095;-73
2022/12/30 07:25:32;;;;;;;2.45;1.20;;;;;;;;;;5033806;28;20141;-74
2022/12/30 07:27:59;;;;;;;3.03;1.40;;;;;;;;;;5033602;28;20054;-74
2022/12/30 07:30:26;;;;;;;2.33;1.30;;;;;;;;;;5022518;28;20050;-74
2022/12/30 07:32:55;;;;;;;4.07;1.30;;;;;;;;;;5013968;28;20133;-74
2022/12/30 07:35:22;;;;;;;2.85;1.25;;;;;;;;;;5013871;28;20141;-74
2022/12/30 07:37:49;;;;;;;2.35;1.20;;;;;;;;;;5026659;28;20057;-74
2022/12/30 07:40:16;;;;;;;2.25;1.25;;;;;;;;;;5013793;28;20132;-74
2022/12/30 07:42:43;;;;;;;3.10;1.30;;;;;;;;;;5013428;28;20062;-74
2022/12/30 07:45:10;;;;;;;1.92;1.25;;;;;;;;;;5014000;28;20064;-73
2022/12/30 07:47:37;;;;;;;2.60;1.10;;;;;;;;;;5013230;28;20135;-74
2022/12/30 07:50:06;;;;;;;2.40;1.33;;;;;;;;;;5013768;28;20085;-74
2022/12/30 07:52:34;;;;;;;2.65;1.30;;;;;;;;;;5013065;28;20053;-74
2022/12/30 07:55:01;;;;;;;2.83;1.30;;;;;;;;;;5013225;28;20053;-74
2022/12/30 07:57:28;;;;;;;3.45;1.38;;;;;;;;;;5013438;28;20050;-74
2022/12/30 07:59:55;;;;;;;3.40;1.30;;;;;;;;;;5029591;28;20053;-73
2022/12/30 08:02:22;;;;;;;3.10;1.30;;;;;;;;;;5032885;28;20137;-74
2022/12/30 08:04:49;;;;;;;4.10;1.35;;;;;;;;;;5029193;28;20041;-75
2022/12/30 08:07:18;;;;;;;2.03;1.20;;;;;;;;;;5013248;28;20060;-75
2022/12/30 08:09:45;;;;;;;2.22;1.20;;;;;;;;;;5018382;28;20058;-75
2022/12/30 08:12:12;;;;;;;3.53;1.25;;;;;;;;;;5013376;28;20418;-75
2022/12/30 08:14:39;;;;;;;3.58;1.60;;;;;;;;;;5013226;28;20160;-75
2022/12/30 08:17:06;;;;;;;2.55;1.42;;;;;;;;;;5013269;28;20058;-75
2022/12/30 08:19:33;;;;;;;3.13;1.35;;;;;;;;;;5012970;28;20140;-75
2022/12/30 08:22:00;;;;;;;1.88;1.05;;;;;;;;;;5012290;28;20080;-75
2022/12/30 08:24:28;;;;;;;2.17;1.30;;;;;;;;;;5013256;28;20506;-74
2022/12/30 08:26:56;;;;;;;3.97;1.45;;;;;;;;;;5016280;28;20647;-74
2022/12/30 08:29:23;;;;;;;3.35;1.60;;;;;;;;;;5026233;28;20128;-75
2022/12/30 08:31:50;;;;;;;3.95;1.50;;;;;;;;;;5012639;28;20062;-75
2022/12/30 08:34:18;;;;;;;3.17;1.20;;;;;;;;;;5012635;28;20137;-75
2022/12/30 08:36:45;;;;;;;3.45;1.50;;;;;;;;;;5020037;28;20080;-74
2022/12/30 08:39:12;;;;;;;3.92;1.75;;;;;;;;;;5032626;28;20063;-74
2022/12/30 08:41:41;;;;;;;3.17;1.30;;;;;;;;;;5032296;28;20135;-74
2022/12/30 08:44:08;;;;;;;3.35;1.40;;;;;;;;;;5032326;28;20057;-74
2022/12/30 08:46:36;;;;;;;5.03;1.50;;;;;;;;;;5032357;28;20257;-74
2022/12/30 08:49:03;;;;;;;3.13;1.50;;;;;;;;;;5031687;28;20128;-74
2022/12/30 08:51:30;;;;;;;3.55;1.40;;;;;;;;;;5032476;28;20049;-74
2022/12/30 08:53:57;;;;;;;3.05;1.50;;;;;;;;;;5031643;28;20061;-74
2022/12/30 08:56:24;;;;;;;4.45;1.52;;;;;;;;;;5031989;28;20053;-74
2022/12/30 08:58:52;;;;;;;3.72;1.50;;;;;;;;;;5031796;28;20548;-74
2022/12/30 09:01:20;;;;;;;1.95;1.10;;;;;;;;;;5032402;28;20136;-74
2022/12/30 09:03:47;;;;;;;4.10;1.60;;;;;;;;;;5031932;28;20081;-74
2022/12/30 09:06:15;;;;;;;4.60;1.55;;;;;;;;;;5031802;28;20062;-74
2022/12/30 09:08:42;;;;;;;4.20;1.38;;;;;;;;;;5031252;28;20462;-74
2022/12/30 09:11:09;;;;;;;3.30;1.50;;;;;;;;;;5020380;28;20647;-74
2022/12/30 09:13:37;;;;;;;4.00;1.65;;;;;;;;;;5021487;28;20125;-74
2022/12/30 09:16:05;;;;;;;3.97;1.77;;;;;;;;;;5012286;28;20054;-74
2022/12/30 09:18:32;;;;;;;2.42;1.30;;;;;;;;;;5011784;28;20056;-74
2022/12/30 09:21:00;;;;;;;3.97;1.40;;;;;;;;;;5013765;28;20136;-74
2022/12/30 09:23:27;;;;;;;3.42;1.40;;;;;;;;;;5031084;28;20136;-74
2022/12/30 09:25:54;;;;;;;3.97;1.52;;;;;;;;;;5031786;28;20136;-74
2022/12/30 09:28:21;;;;;;;4.25;1.40;;;;;;;;;;5022586;28;20046;-74
2022/12/30 09:30:48;;;;;;;3.92;1.50;;;;;;;;;;5014593;28;20058;-74
2022/12/30 09:33:17;;;;;;;2.45;1.45;;;;;;;;;;5011414;28;20061;-74
2022/12/30 09:35:44;;;;;;;3.53;1.70;;;;;;;;;;5011476;28;20057;-74
2022/12/30 09:38:11;;;;;;;4.55;1.67;;;;;;;;;;5030591;28;20132;-74
2022/12/30 09:40:48;;;;;;;4.70;1.48;;;13.90;71.00;;;;;;5031445;28;20064;-74
2022/12/30 09:43:17;;;;;;;1.85;1.30;;;13.90;71.00;;;;;;5030889;28;20057;-74
2022/12/30 09:45:50;;;;;;;2.72;1.20;;;14.00;70.50;;;;;;5031209;28;20057;-74
2022/12/30 09:48:18;;;;;;;2.40;1.30;;;;;;;;;;5030728;28;20136;-75
2022/12/30 09:50:46;;;;;;;3.25;1.55;;;14.00;68.90;;;;;;5029512;28;20059;-75
2022/12/30 09:53:14;;;;;;;4.47;1.65;;;;;;;;;;5031140;28;20063;-75
2022/12/30 09:55:44;;;;;;;2.88;1.30;;;;;;;;;;5021500;28;20054;-74
2022/12/30 09:58:12;;;;;;;2.92;1.40;;;;;;;;;;5011187;28;20053;-74
2022/12/30 10:00:39;;;;;;;2.22;1.30;;;;;;;;;;5011180;28;20590;-74
2022/12/30 10:03:06;;;;;;;3.90;1.65;;;;;;;;;;5011190;28;20511;-73
2022/12/30 10:05:46;;;;;;;2.50;1.33;;;14.10;70.80;;;;;;5013783;28;20061;-73
2022/12/30 10:08:26;;;;;;;2.53;1.60;;;14.10;70.80;;;;;;5030868;28;20129;-73
2022/12/30 10:10:54;;;;;;;4.07;1.25;;;;;;;;;;5030390;28;20059;-73
2022/12/30 10:13:22;;;;;;;1.13;0.98;;;;;;;;;;5030832;28;20060;-74
2022/12/30 10:15:51;;;;;;;3.13;1.30;;;;;;;;;;5030806;28;20053;-74
2022/12/30 10:18:25;;;;;;;2.53;1.40;;;;;;;;;;5030774;28;20054;-74
2022/12/30 10:20:58;;;;;;;2.85;1.40;;;14.10;70.00;;;;;;5030958;28;20076;-74
2022/12/30 10:23:31;;;;;;;4.47;1.40;;;;;;;;;;5027194;28;20060;-74
2022/12/30 10:26:01;;;;;;;3.17;1.70;;;14.20;70.60;;;;;;5011262;28;20144;-74
2022/12/30 10:28:29;;;;;;;2.33;1.27;;;;;;;;;;5012191;28;20129;-74
2022/12/30 10:30:56;;;;;;;3.17;1.50;;;;;;;;;;5011143;28;20050;-73
2022/12/30 10:33:23;;;;;;;2.95;1.30;;;;;;;;;;5010712;28;20058;-73
2022/12/30 10:35:52;;;;;;;4.63;1.40;;;14.20;70.40;;;;;;5015779;28;20057;-73
2022/12/30 10:38:21;;;;;;;3.50;1.33;;;;;;;;;;5024712;28;20056;-73
2022/12/30 10:40:52;;;;;;;2.60;1.38;;;14.40;69.80;;;;;;5030577;28;20053;-74
2022/12/30 10:43:23;;;;;;;3.53;1.40;;;;;;;;;;5030428;28;20049;-74
2022/12/30 10:45:53;;;;;;;3.03;1.40;;;;;;;;;;5034497;28;20057;-74
2022/12/30 10:48:25;;;;;;;4.18;1.30;;;;;;;;;;5034407;28;20060;-76
2022/12/30 10:50:52;;;;;;;2.03;1.20;;;;;;;;;;5020363;28;20057;-75
2022/12/30 10:53:21;;;;;;;3.25;1.30;;;14.40;68.80;;;;;;5014787;28;20058;-75
2022/12/30 10:55:49;;;;;;;1.95;1.08;;;;;;;;;;5014257;28;20050;-75
2022/12/30 10:58:18;;;;;;;2.38;1.23;;;;;;;;;;5014632;28;20053;-74
2022/12/30 11:00:45;;;;;;;3.05;1.30;;;;;;;;;;5019440;28;20390;-75
2022/12/30 11:03:17;;;;;;;3.03;1.60;;;14.50;70.20;;;;;;5014527;28;20076;-75
2022/12/30 11:05:45;;;;;;;2.58;1.27;;;;;;;;;;5014600;28;20141;-74
2022/12/30 11:08:20;;;;;;;2.65;1.40;;;;;;;;;;5013519;28;20137;-74
2022/12/30 11:10:58;;;;;;;2.38;1.10;;;;;;;;;;5014251;28;20152;-75
2022/12/30 11:16:09;;;;;;;3.10;1.23;;;;;;;;;;5022353;28;20449;-75
2022/12/30 11:18:37;;;;;;;2.35;1.30;;;;;;;;;;5024278;28;20049;-74
2022/12/30 11:21:06;;;;;;;2.42;1.17;;;;;;;;;;5022203;28;20049;-75
2022/12/30 11:23:34;;;;;;;3.00;1.15;;;;;;;;;;5023060;28;20542;-75
2022/12/30 11:26:02;;;;;;;2.80;1.25;;;;;;;;;;5024710;28;20136;-75
2022/12/30 11:28:30;;;;;;;3.30;1.30;;;;;;;;;;5020336;28;20136;-75
2022/12/30 11:30:59;;;;;;;2.70;1.20;;;14.60;69.90;;;;;;5024452;28;20128;-75
2022/12/30 11:33:27;;;;;;;3.08;1.48;;;;;;;;;;5025398;28;20136;-75
2022/12/30 11:35:54;;;;;;;3.58;1.10;;;;;;;;;;5022816;28;20054;-75
2022/12/30 11:38:29;;;;;;;4.45;1.13;;;;;;;;;;5016019;28;20128;-74
2022/12/30 11:40:56;;;;;;;2.50;1.17;;;;;;;;;;5013622;28;20065;-75
2022/12/30 11:43:24;;;;;;;3.53;1.30;;;;;;;;;;5020316;28;20050;-75
2022/12/30 11:45:58;;;;;;;4.40;1.58;;;;;;;;;;5033260;28;20063;-75
2022/12/30 11:48:30;;;;;;;2.95;1.40;;;;;;;;;;5033167;28;20057;-74
2022/12/30 11:50:57;;;;;;;2.38;1.30;;;;;;;;;;5033212;28;20061;-75
2022/12/30 11:53:25;;;;;;;2.55;1.25;;;;;;;;;;5032953;28;20562;-75
2022/12/30 11:55:53;;;;;;;2.75;1.17;;;;;;;;;;5032230;28;20057;-74
2022/12/30 11:58:22;;;;;;;4.25;1.10;;;;;;;;;;5033298;28;20050;-75
2022/12/30 12:00:56;;;;;;;2.67;1.52;;;;;;;;;;5033356;28;20494;-75
2022/12/30 12:03:23;;;;;;;4.03;1.33;;;;;;;;;;5031635;28;20479;-75
2022/12/30 12:05:50;;;;;;;3.22;1.30;;;;;;;;;;5015169;28;20058;-74
2022/12/30 12:08:20;;;;;;;3.22;1.17;;;14.30;70.40;;;;;;5013114;28;20049;-74
2022/12/30 12:10:50;;;;;;;4.38;1.30;;;14.20;70.30;;;;;;5018266;28;20056;-74
2022/12/30 12:13:20;;;;;;;3.45;1.20;;;;;;;;;;5012888;28;20141;-74
2022/12/30 12:15:47;;;;;;;1.95;1.02;;;;;;;;;;5012900;28;20053;-74
2022/12/30 12:18:18;;;;;;;1.98;1.20;;;;;;;;;;5013149;28;20606;-74
2022/12/30 12:20:50;;;;;;;2.15;1.10;;;14.20;69.90;;;;;;5013417;28;20505;-74
2022/12/30 12:23:20;;;;;;;3.33;1.10;;;14.20;70.70;;;;;;5032411;28;20053;-74
2022/12/30 12:25:53;;;;;;;2.25;1.17;;;14.10;70.00;;;;;;5026535;28;20057;-74
2022/12/30 12:28:20;;;;;;;1.27;0.95;;;;;;;;;;5012843;28;20058;-74
2022/12/30 12:30:55;;;;;;;3.33;1.13;;;;;;;;;;5012751;28;20140;-74
2022/12/30 12:33:28;;;;;;;2.33;1.20;;;14.10;70.00;;;;;;5013663;28;20053;-74
2022/12/30 12:35:57;;;;;;;1.83;1.15;;;14.00;70.70;;;;;;5013536;28;20056;-74
2022/12/30 12:38:37;;;;;;;1.40;0.90;;;;;;;;;;5032331;28;20053;-77
2022/12/30 12:41:17;;;;;;;1.73;1.00;;;;;;;;;;5013759;28;20054;-74
2022/12/30 12:43:47;;;;;;;1.95;1.20;;;;;;;;;;5011220;28;20089;-74
2022/12/30 12:46:19;;;;;;;1.73;1.02;;;;;;;;;;5011635;28;20551;-74
2022/12/30 12:49:19;;;;;;;1.92;1.10;;;13.90;70.80;;;;;;5012021;28;20074;-74
2022/12/30 12:51:49;;;;;;;1.95;1.10;;;;;;;;;;4967094;28;20136;-74
2022/12/30 12:54:26;;;;;;;1.23;0.90;;;;;;;;;;5023351;28;20057;-74
2022/12/30 12:57:04;;;;;;;2.15;1.02;;;14.00;70.70;;;;;;5032058;28;20060;-74
2022/12/30 12:59:40;;;;;;;1.20;1.00;;;;;;;;;;5032148;28;20049;-74
2022/12/30 13:02:12;;;;;;;2.60;1.17;;;;;;;;;;5032107;28;20083;-74
2022/12/30 13:04:42;;;;;;;2.92;1.10;;;;;;;;;;5032321;28;20057;-74
2022/12/30 13:07:11;;;;;;;3.00;1.35;;;;;;;;;;5030965;28;20476;-74
2022/12/30 13:10:04;;;;;;;1.88;1.25;;;13.90;71.20;;;;;;5031677;28;20053;-73
2022/12/30 13:12:32;;;;;;;2.53;1.10;;;;;;;;;;5031471;28;20053;-74
2022/12/30 13:15:00;;;;;;;2.03;1.10;;;13.70;69.30;;;;;;5031734;28;20060;-74
2022/12/30 13:17:30;;;;;;;2.13;1.20;;;13.70;71.10;;;;;;5031597;28;20508;-74
2022/12/30 13:20:00;;;;;;;3.08;1.20;;;;;;;;;;5031859;28;20540;-74
2022/12/30 13:22:31;;;;;;;2.50;1.10;;;13.80;71.20;;;;;;5021182;28;20542;-74
2022/12/30 13:24:59;;;;;;;2.15;1.10;;;;;;;;;;5011952;28;20064;-74
2022/12/30 13:27:27;;;;;;;1.23;0.93;;;;;;;;;;5011764;28;20064;-74
2022/12/30 13:29:54;;;;;;;2.03;1.00;;;;;;;;;;5011672;28;20062;-74
2022/12/30 13:32:25;;;;;;;1.80;1.20;;;13.80;69.30;;;;;;5011459;28;20060;-74
2022/12/30 13:34:53;;;;;;;2.42;1.10;;;;;;;;;;5011941;28;20498;-74
2022/12/30 13:37:23;;;;;;;2.33;1.20;;;;;;;;;;5027314;28;20159;-74
2022/12/30 13:39:52;;;;;;;1.73;1.00;;;;;;;;;;5031288;28;20520;-74
2022/12/30 13:42:40;;;;;;;1.25;1.10;;;;;;;;;;5031234;28;20506;-74
2022/12/30 13:45:11;;;;;;;2.40;1.13;;;;;;;;;;5025022;28;20148;-74
2022/12/30 13:47:39;;;;;;;2.72;1.02;;;;;;;;;;5031226;28;20053;-74
2022/12/30 13:50:13;;;;;;;3.25;1.30;;;;;;;;;;5025311;28;20056;-74
2022/12/30 13:52:45;;;;;;;1.63;1.20;;;13.60;71.50;;;;;;5011428;28;20065;-74
2022/12/30 13:55:17;;;;;;;2.97;1.00;;;13.60;71.50;;;;;;5011166;28;20049;-74
2022/12/30 13:57:44;;;;;;;2.33;1.20;;;;;;;;;;5011540;28;20484;-74
2022/12/30 14:00:25;;;;;;;1.58;1.00;;;13.60;71.50;;;;;;5011279;28;20517;-74
2022/12/30 14:02:58;;;;;;;1.73;1.13;;;;;;;;;;5011386;28;20466;-74
2022/12/30 14:05:46;;;;;;;1.35;0.90;;;;;;;;;;5011800;28;20434;-74
2022/12/30 14:08:22;;;;;;;1.88;1.10;;;;;;;;;;5006610;28;20056;-74
2022/12/30 14:10:54;;;;;;;1.88;1.10;;;;;;;;;;5011434;28;20060;-74
2022/12/30 14:13:37;;;;;;;1.92;1.20;;;;;;;;;;5011123;28;20160;-74
2022/12/30 14:16:05;;;;;;;1.67;1.00;;;13.60;71.60;;;;;;5011258;28;20054;-74
2022/12/30 14:18:42;;;;;;;3.17;1.20;;;;;;;;;;5016750;28;20057;-74
2022/12/30 14:21:10;;;;;;;1.10;0.90;;;;;;;;;;5031060;28;20128;-74
2022/12/30 14:23:40;;;;;;;1.98;1.05;;;;;;;;;;5026553;28;20133;-74
2022/12/30 14:26:41;;;;;;;1.52;0.95;;;13.60;67.80;;;;;;5016863;28;20480;-74
2022/12/30 14:29:20;;;;;;;1.00;0.90;;;;;;;;;;5011052;28;20128;-74
2022/12/30 14:31:47;;;;;;;2.88;1.00;;;;;;;;;;5010883;28;20056;-74
2022/12/30 14:34:22;;;;;;;1.95;1.00;;;13.60;71.30;;;;;;5047091;28;20129;-74
2022/12/30 14:36:56;;;;;;;1.35;0.70;;;;;;;;;;5030395;28;20406;-74
2022/12/30 14:39:24;;;;;;;1.50;0.90;;;;;;;;;;5030330;28;20045;-74
2022/12/30 14:41:51;;;;;;;1.67;1.10;;;;;;;;;;5030458;28;20060;-74
2022/12/30 14:44:19;;;;;;;1.77;1.00;;;13.70;69.00;;;;;;5030319;28;20057;-74
2022/12/30 14:46:51;;;;;;;3.33;1.10;;;;;;;;;;5023962;28;20145;-74
2022/12/30 14:49:19;;;;;;;1.02;0.80;;;;;;;;;;5010772;28;20050;-74
2022/12/30 14:51:47;;;;;;;2.17;1.25;;;;;;;;;;5010777;28;20137;-74
2022/12/30 14:54:15;;;;;;;2.28;0.90;;;;;;;;;;5010652;28;20124;-74
2022/12/30 14:56:47;;;;;;;3.45;1.17;;;;;;;;;;5010466;28;20050;-74
2022/12/30 14:59:14;;;;;;;1.17;1.00;;;;;;;;;;5010635;28;20125;-74
2022/12/30 15:01:44;;;;;;;1.85;1.00;;;;;;;;;;5023219;28;20057;-74
2022/12/30 15:04:11;;;;;;;1.40;1.10;;;;;;;;;;5030324;28;20123;-74
2022/12/30 15:06:39;;;;;;;1.75;0.98;;;;;;;;;;5030474;28;20053;-74
2022/12/30 15:09:08;;;;;;;1.30;0.90;;;;;;;;;;5030347;28;20077;-74
2022/12/30 15:11:35;;;;;;;2.08;0.90;;;;;;;;;;5030529;28;20092;-74
2022/12/30 15:14:04;;;;;;;1.00;0.80;;;;;;;;;;5030115;28;20542;-74
2022/12/30 15:16:32;;;;;;;1.23;0.88;;;;;;;;;;5016337;28;20057;-74
2022/12/30 15:18:59;;;;;;;1.42;1.10;;;;;;;;;;5010495;28;20050;-74
2022/12/30 15:21:26;;;;;;;1.75;1.00;;;13.80;69.50;;;;;;5016444;28;20487;-74
2022/12/30 15:24:01;;;;;;;1.52;0.98;;;;;;;;;;5024616;28;20061;-75
2022/12/30 15:26:29;;;;;;;1.50;1.00;;;13.90;70.00;;;;;;5010428;28;20129;-75
2022/12/30 15:28:56;;;;;;;1.52;0.95;;;;;;;;;;5016196;28;20132;-74